Swaffham, United Kingdom
Current Conditions -  °F | °C
As of 7:50 AM on Friday 31 Oct 2014 (Local Time) from EGYM Reporting Station
Haze Haze  
Wind Chill: 13°   Ceiling: 24000
Heat Index: 13°   Visibility: 3mi
Dew Point: 13°   Wind: 9mph
Humidity: 100%   Direction: 150°SSE
Pressure: 30.03"   Gusts: NA
Location:  52.65°N, 0.69°E
Report Text: EGYM 310750Z 15008KT 5000 BR FEW140 BKN240 13/13 Q1017 WHT BECMG 7000 HZ WHT
Loading
Personal Weather Stations






























Interactive Weather Map
Tropical Storm Tracking
New forecast layout! Learn more

10-Day Weather Forecast

Advertisements
Track Severe Weather on mobile